sensor_id;sensor_type;location;lat;lon;timestamp;P1;durP1;ratioP1;P2;durP2;ratioP2
18711;SDS011;9485;49.386;8.674;2023-06-22T00:04:19;2.88;;;2.47;;
18711;SDS011;9485;49.386;8.674;2023-06-22T00:09:40;4.07;;;3.00;;
18711;SDS011;9485;49.386;8.674;2023-06-22T00:15:01;4.32;;;3.00;;
18711;SDS011;9485;49.386;8.674;2023-06-22T00:20:23;3.75;;;3.40;;
18711;SDS011;9485;49.386;8.674;2023-06-22T00:25:46;3.00;;;2.70;;
18711;SDS011;9485;49.386;8.674;2023-06-22T00:31:07;3.72;;;3.13;;
18711;SDS011;9485;49.386;8.674;2023-06-22T00:36:29;3.40;;;3.10;;
18711;SDS011;9485;49.386;8.674;2023-06-22T00:41:50;2.95;;;2.45;;
18711;SDS011;9485;49.386;8.674;2023-06-22T00:47:11;4.47;;;3.05;;
18711;SDS011;9485;49.386;8.674;2023-06-22T00:52:35;3.20;;;2.83;;
18711;SDS011;9485;49.386;8.674;2023-06-22T00:58:03;5.13;;;3.38;;
18711;SDS011;9485;49.386;8.674;2023-06-22T01:03:27;5.10;;;3.78;;
18711;SDS011;9485;49.386;8.674;2023-06-22T01:08:51;4.35;;;3.95;;
18711;SDS011;9485;49.386;8.674;2023-06-22T01:14:32;5.95;;;4.35;;
18711;SDS011;9485;49.386;8.674;2023-06-22T01:20:02;5.63;;;4.15;;
18711;SDS011;9485;49.386;8.674;2023-06-22T01:25:31;3.65;;;3.35;;
18711;SDS011;9485;49.386;8.674;2023-06-22T01:31:05;3.20;;;2.90;;
18711;SDS011;9485;49.386;8.674;2023-06-22T01:36:28;5.90;;;3.80;;
18711;SDS011;9485;49.386;8.674;2023-06-22T01:41:51;5.97;;;4.88;;
18711;SDS011;9485;49.386;8.674;2023-06-22T01:47:15;4.70;;;3.97;;
18711;SDS011;9485;49.386;8.674;2023-06-22T01:52:38;3.97;;;3.58;;
18711;SDS011;9485;49.386;8.674;2023-06-22T01:57:58;5.68;;;3.53;;
18711;SDS011;9485;49.386;8.674;2023-06-22T02:03:21;4.53;;;4.13;;
18711;SDS011;9485;49.386;8.674;2023-06-22T02:08:48;5.47;;;4.57;;
18711;SDS011;9485;49.386;8.674;2023-06-22T02:14:15;6.68;;;5.10;;
18711;SDS011;9485;49.386;8.674;2023-06-22T02:19:38;6.43;;;5.15;;
18711;SDS011;9485;49.386;8.674;2023-06-22T02:25:01;6.85;;;4.78;;
18711;SDS011;9485;49.386;8.674;2023-06-22T02:30:22;4.75;;;4.28;;
18711;SDS011;9485;49.386;8.674;2023-06-22T02:35:44;4.80;;;4.25;;
18711;SDS011;9485;49.386;8.674;2023-06-22T02:41:08;4.55;;;3.90;;
18711;SDS011;9485;49.386;8.674;2023-06-22T02:46:31;4.40;;;3.85;;
18711;SDS011;9485;49.386;8.674;2023-06-22T02:51:53;4.53;;;4.05;;
18711;SDS011;9485;49.386;8.674;2023-06-22T02:57:15;4.07;;;3.65;;
18711;SDS011;9485;49.386;8.674;2023-06-22T03:02:36;4.88;;;3.78;;
18711;SDS011;9485;49.386;8.674;2023-06-22T03:07:58;4.43;;;3.53;;
18711;SDS011;9485;49.386;8.674;2023-06-22T03:13:22;4.00;;;3.42;;
18711;SDS011;9485;49.386;8.674;2023-06-22T03:18:44;5.18;;;3.75;;
18711;SDS011;9485;49.386;8.674;2023-06-22T03:24:07;4.05;;;3.38;;
18711;SDS011;9485;49.386;8.674;2023-06-22T03:29:27;4.55;;;3.97;;
18711;SDS011;9485;49.386;8.674;2023-06-22T03:34:48;3.90;;;3.50;;
18711;SDS011;9485;49.386;8.674;2023-06-22T03:40:11;4.10;;;3.70;;
18711;SDS011;9485;49.386;8.674;2023-06-22T03:45:33;4.57;;;3.58;;
18711;SDS011;9485;49.386;8.674;2023-06-22T03:50:54;4.40;;;3.75;;
18711;SDS011;9485;49.386;8.674;2023-06-22T03:56:15;4.20;;;3.67;;
18711;SDS011;9485;49.386;8.674;2023-06-22T04:01:39;4.38;;;3.58;;
18711;SDS011;9485;49.386;8.674;2023-06-22T04:06:59;4.10;;;3.60;;
18711;SDS011;9485;49.386;8.674;2023-06-22T04:12:22;3.88;;;3.58;;
18711;SDS011;9485;49.386;8.674;2023-06-22T04:17:43;4.75;;;3.97;;
18711;SDS011;9485;49.386;8.674;2023-06-22T04:23:04;4.30;;;3.90;;
18711;SDS011;9485;49.386;8.674;2023-06-22T04:28:27;4.18;;;3.70;;
18711;SDS011;9485;49.386;8.674;2023-06-22T04:33:51;5.03;;;3.72;;
18711;SDS011;9485;49.386;8.674;2023-06-22T04:39:12;4.15;;;3.75;;
18711;SDS011;9485;49.386;8.674;2023-06-22T04:44:36;4.78;;;3.80;;
18711;SDS011;9485;49.386;8.674;2023-06-22T04:49:59;5.32;;;4.18;;
18711;SDS011;9485;49.386;8.674;2023-06-22T04:55:24;4.30;;;3.85;;
18711;SDS011;9485;49.386;8.674;2023-06-22T05:00:47;4.60;;;4.00;;
18711;SDS011;9485;49.386;8.674;2023-06-22T05:06:11;4.20;;;3.80;;
18711;SDS011;9485;49.386;8.674;2023-06-22T05:11:33;4.55;;;3.95;;
18711;SDS011;9485;49.386;8.674;2023-06-22T05:16:56;4.45;;;4.00;;
18711;SDS011;9485;49.386;8.674;2023-06-22T05:22:22;4.15;;;3.75;;
18711;SDS011;9485;49.386;8.674;2023-06-22T05:27:43;4.03;;;3.67;;
18711;SDS011;9485;49.386;8.674;2023-06-22T05:33:06;3.67;;;3.38;;
18711;SDS011;9485;49.386;8.674;2023-06-22T05:38:27;4.90;;;3.95;;
18711;SDS011;9485;49.386;8.674;2023-06-22T05:43:49;5.07;;;4.18;;
18711;SDS011;9485;49.386;8.674;2023-06-22T05:49:12;3.97;;;3.60;;
18711;SDS011;9485;49.386;8.674;2023-06-22T05:54:35;4.10;;;3.17;;
18711;SDS011;9485;49.386;8.674;2023-06-22T05:59:57;3.85;;;3.38;;
18711;SDS011;9485;49.386;8.674;2023-06-22T06:05:19;3.92;;;3.50;;
18711;SDS011;9485;49.386;8.674;2023-06-22T06:10:40;3.70;;;3.40;;
18711;SDS011;9485;49.386;8.674;2023-06-22T06:16:00;3.53;;;3.22;;
18711;SDS011;9485;49.386;8.674;2023-06-22T06:21:22;3.97;;;3.30;;
18711;SDS011;9485;49.386;8.674;2023-06-22T06:26:43;5.13;;;3.67;;
18711;SDS011;9485;49.386;8.674;2023-06-22T06:32:04;4.93;;;3.85;;
18711;SDS011;9485;49.386;8.674;2023-06-22T06:37:26;3.65;;;3.35;;
18711;SDS011;9485;49.386;8.674;2023-06-22T06:42:47;4.05;;;3.65;;
18711;SDS011;9485;49.386;8.674;2023-06-22T06:48:09;3.95;;;3.55;;
18711;SDS011;9485;49.386;8.674;2023-06-22T06:53:32;4.40;;;4.00;;
18711;SDS011;9485;49.386;8.674;2023-06-22T06:58:53;4.03;;;3.63;;
18711;SDS011;9485;49.386;8.674;2023-06-22T07:04:14;4.32;;;3.80;;
18711;SDS011;9485;49.386;8.674;2023-06-22T07:09:36;4.43;;;3.80;;
18711;SDS011;9485;49.386;8.674;2023-06-22T07:15:01;4.00;;;3.70;;
18711;SDS011;9485;49.386;8.674;2023-06-22T07:20:24;3.80;;;3.47;;
18711;SDS011;9485;49.386;8.674;2023-06-22T07:25:46;4.10;;;3.70;;
18711;SDS011;9485;49.386;8.674;2023-06-22T07:31:08;4.25;;;3.63;;
18711;SDS011;9485;49.386;8.674;2023-06-22T07:36:29;4.35;;;3.95;;
18711;SDS011;9485;49.386;8.674;2023-06-22T07:41:52;4.22;;;3.83;;
18711;SDS011;9485;49.386;8.674;2023-06-22T07:47:13;4.13;;;3.70;;
18711;SDS011;9485;49.386;8.674;2023-06-22T07:52:34;4.30;;;3.75;;
18711;SDS011;9485;49.386;8.674;2023-06-22T07:57:57;3.60;;;3.30;;
18711;SDS011;9485;49.386;8.674;2023-06-22T08:03:18;3.83;;;3.45;;
18711;SDS011;9485;49.386;8.674;2023-06-22T08:08:39;3.42;;;3.10;;
18711;SDS011;9485;49.386;8.674;2023-06-22T08:14:03;4.07;;;3.33;;
18711;SDS011;9485;49.386;8.674;2023-06-22T08:19:24;3.67;;;3.33;;
18711;SDS011;9485;49.386;8.674;2023-06-22T08:24:44;4.63;;;3.47;;
18711;SDS011;9485;49.386;8.674;2023-06-22T08:30:09;3.72;;;3.40;;
18711;SDS011;9485;49.386;8.674;2023-06-22T08:35:30;3.55;;;3.22;;
18711;SDS011;9485;49.386;8.674;2023-06-22T08:40:52;3.55;;;3.25;;
18711;SDS011;9485;49.386;8.674;2023-06-22T08:46:15;3.20;;;2.80;;
18711;SDS011;9485;49.386;8.674;2023-06-22T08:51:40;4.50;;;3.45;;
18711;SDS011;9485;49.386;8.674;2023-06-22T08:57:03;3.00;;;2.75;;
18711;SDS011;9485;49.386;8.674;2023-06-22T09:02:26;4.95;;;3.63;;
18711;SDS011;9485;49.386;8.674;2023-06-22T09:07:50;4.40;;;3.40;;
18711;SDS011;9485;49.386;8.674;2023-06-22T09:13:10;4.15;;;3.22;;
18711;SDS011;9485;49.386;8.674;2023-06-22T09:18:33;4.18;;;3.78;;
18711;SDS011;9485;49.386;8.674;2023-06-22T09:23:54;4.22;;;3.70;;
18711;SDS011;9485;49.386;8.674;2023-06-22T09:29:15;3.90;;;3.60;;
18711;SDS011;9485;49.386;8.674;2023-06-22T09:34:38;3.85;;;3.45;;
18711;SDS011;9485;49.386;8.674;2023-06-22T09:39:59;4.90;;;3.75;;
18711;SDS011;9485;49.386;8.674;2023-06-22T09:45:19;4.20;;;3.45;;
18711;SDS011;9485;49.386;8.674;2023-06-22T09:50:41;4.68;;;3.63;;
18711;SDS011;9485;49.386;8.674;2023-06-22T09:56:02;3.70;;;3.40;;
18711;SDS011;9485;49.386;8.674;2023-06-22T10:01:25;4.45;;;3.95;;
18711;SDS011;9485;49.386;8.674;2023-06-22T10:06:47;6.40;;;3.97;;
18711;SDS011;9485;49.386;8.674;2023-06-22T10:12:08;4.35;;;3.95;;
18711;SDS011;9485;49.386;8.674;2023-06-22T10:17:29;6.07;;;4.15;;
18711;SDS011;9485;49.386;8.674;2023-06-22T10:22:51;4.50;;;3.92;;
18711;SDS011;9485;49.386;8.674;2023-06-22T10:28:12;4.57;;;3.95;;
18711;SDS011;9485;49.386;8.674;2023-06-22T10:33:34;4.20;;;3.80;;
18711;SDS011;9485;49.386;8.674;2023-06-22T10:38:56;4.82;;;4.00;;
18711;SDS011;9485;49.386;8.674;2023-06-22T10:44:17;5.38;;;3.88;;
18711;SDS011;9485;49.386;8.674;2023-06-22T10:49:39;7.10;;;3.45;;
18711;SDS011;9485;49.386;8.674;2023-06-22T10:55:02;4.05;;;3.65;;
18711;SDS011;9485;49.386;8.674;2023-06-22T11:00:24;4.15;;;3.40;;
18711;SDS011;9485;49.386;8.674;2023-06-22T11:05:44;5.15;;;3.92;;
18711;SDS011;9485;49.386;8.674;2023-06-22T11:11:07;3.63;;;3.33;;
18711;SDS011;9485;49.386;8.674;2023-06-22T11:16:28;4.00;;;3.65;;
18711;SDS011;9485;49.386;8.674;2023-06-22T11:21:49;5.45;;;4.00;;
18711;SDS011;9485;49.386;8.674;2023-06-22T11:27:11;6.65;;;3.40;;
18711;SDS011;9485;49.386;8.674;2023-06-22T11:32:33;4.60;;;3.85;;
18711;SDS011;9485;49.386;8.674;2023-06-22T11:37:55;4.70;;;3.88;;
18711;SDS011;9485;49.386;8.674;2023-06-22T11:43:17;4.43;;;3.75;;
18711;SDS011;9485;49.386;8.674;2023-06-22T11:48:38;5.95;;;3.75;;
18711;SDS011;9485;49.386;8.674;2023-06-22T11:53:58;4.32;;;3.65;;
18711;SDS011;9485;49.386;8.674;2023-06-22T11:59:20;4.75;;;4.00;;
18711;SDS011;9485;49.386;8.674;2023-06-22T12:04:41;5.65;;;3.60;;
18711;SDS011;9485;49.386;8.674;2023-06-22T12:10:02;3.70;;;3.03;;
18711;SDS011;9485;49.386;8.674;2023-06-22T12:15:25;5.10;;;3.92;;
18711;SDS011;9485;49.386;8.674;2023-06-22T12:20:46;4.60;;;3.42;;
18711;SDS011;9485;49.386;8.674;2023-06-22T12:26:08;4.32;;;3.78;;
18711;SDS011;9485;49.386;8.674;2023-06-22T12:31:30;5.50;;;3.90;;
18711;SDS011;9485;49.386;8.674;2023-06-22T12:36:51;5.15;;;3.55;;
18711;SDS011;9485;49.386;8.674;2023-06-22T12:42:13;4.65;;;3.25;;
18711;SDS011;9485;49.386;8.674;2023-06-22T12:47:36;4.50;;;3.45;;
18711;SDS011;9485;49.386;8.674;2023-06-22T12:52:56;4.57;;;3.85;;
18711;SDS011;9485;49.386;8.674;2023-06-22T12:58:17;4.72;;;3.25;;
18711;SDS011;9485;49.386;8.674;2023-06-22T13:03:40;4.53;;;3.58;;
18711;SDS011;9485;49.386;8.674;2023-06-22T13:09:01;6.22;;;3.72;;
18711;SDS011;9485;49.386;8.674;2023-06-22T13:14:23;4.50;;;3.78;;
18711;SDS011;9485;49.386;8.674;2023-06-22T13:19:45;4.93;;;3.55;;
18711;SDS011;9485;49.386;8.674;2023-06-22T13:25:06;4.75;;;3.63;;
18711;SDS011;9485;49.386;8.674;2023-06-22T13:30:30;4.07;;;3.58;;
18711;SDS011;9485;49.386;8.674;2023-06-22T13:35:53;6.43;;;3.72;;
18711;SDS011;9485;49.386;8.674;2023-06-22T13:41:13;4.43;;;3.72;;
18711;SDS011;9485;49.386;8.674;2023-06-22T13:46:35;7.43;;;3.83;;
18711;SDS011;9485;49.386;8.674;2023-06-22T13:51:58;5.63;;;4.00;;
18711;SDS011;9485;49.386;8.674;2023-06-22T13:57:23;5.22;;;4.00;;
18711;SDS011;9485;49.386;8.674;2023-06-22T14:02:44;7.53;;;4.25;;
18711;SDS011;9485;49.386;8.674;2023-06-22T14:08:08;6.68;;;3.25;;
18711;SDS011;9485;49.386;8.674;2023-06-22T14:13:29;4.68;;;3.88;;
18711;SDS011;9485;49.386;8.674;2023-06-22T14:18:51;7.80;;;4.20;;
18711;SDS011;9485;49.386;8.674;2023-06-22T14:24:15;5.13;;;3.80;;
18711;SDS011;9485;49.386;8.674;2023-06-22T14:29:36;6.25;;;4.10;;
18711;SDS011;9485;49.386;8.674;2023-06-22T14:34:58;4.93;;;4.13;;
18711;SDS011;9485;49.386;8.674;2023-06-22T14:40:20;5.72;;;4.18;;
18711;SDS011;9485;49.386;8.674;2023-06-22T14:45:42;5.35;;;3.42;;
18711;SDS011;9485;49.386;8.674;2023-06-22T14:51:03;4.68;;;3.92;;
18711;SDS011;9485;49.386;8.674;2023-06-22T14:56:25;5.95;;;4.20;;
18711;SDS011;9485;49.386;8.674;2023-06-22T15:01:48;5.55;;;4.10;;
18711;SDS011;9485;49.386;8.674;2023-06-22T15:07:11;6.53;;;4.28;;
18711;SDS011;9485;49.386;8.674;2023-06-22T15:12:34;8.25;;;4.43;;
18711;SDS011;9485;49.386;8.674;2023-06-22T15:17:56;5.38;;;4.25;;
18711;SDS011;9485;49.386;8.674;2023-06-22T15:23:17;8.10;;;5.10;;
18711;SDS011;9485;49.386;8.674;2023-06-22T15:28:40;7.10;;;4.30;;
18711;SDS011;9485;49.386;8.674;2023-06-22T15:34:02;6.07;;;4.65;;
18711;SDS011;9485;49.386;8.674;2023-06-22T15:39:23;6.68;;;4.35;;
18711;SDS011;9485;49.386;8.674;2023-06-22T15:44:47;7.88;;;4.40;;
18711;SDS011;9485;49.386;8.674;2023-06-22T15:50:09;4.47;;;3.88;;
18711;SDS011;9485;49.386;8.674;2023-06-22T15:55:31;5.40;;;4.45;;
18711;SDS011;9485;49.386;8.674;2023-06-22T16:00:55;5.95;;;4.20;;
18711;SDS011;9485;49.386;8.674;2023-06-22T16:06:17;13.82;;;4.13;;
18711;SDS011;9485;49.386;8.674;2023-06-22T16:11:39;5.78;;;3.78;;
18711;SDS011;9485;49.386;8.674;2023-06-22T16:17:02;4.53;;;3.80;;
18711;SDS011;9485;49.386;8.674;2023-06-22T16:22:24;4.40;;;3.47;;
18711;SDS011;9485;49.386;8.674;2023-06-22T16:27:45;5.25;;;3.25;;
18711;SDS011;9485;49.386;8.674;2023-06-22T16:33:08;5.80;;;3.60;;
18711;SDS011;9485;49.386;8.674;2023-06-22T16:38:30;6.63;;;3.80;;
18711;SDS011;9485;49.386;8.674;2023-06-22T16:43:52;4.72;;;3.00;;
18711;SDS011;9485;49.386;8.674;2023-06-22T16:49:19;4.03;;;3.13;;
18711;SDS011;9485;49.386;8.674;2023-06-22T16:54:40;4.32;;;3.40;;
18711;SDS011;9485;49.386;8.674;2023-06-22T17:00:02;5.13;;;3.40;;
18711;SDS011;9485;49.386;8.674;2023-06-22T17:05:30;8.23;;;4.65;;
18711;SDS011;9485;49.386;8.674;2023-06-22T17:10:52;4.95;;;3.92;;
18711;SDS011;9485;49.386;8.674;2023-06-22T17:16:15;6.75;;;4.03;;
18711;SDS011;9485;49.386;8.674;2023-06-22T17:21:39;5.80;;;4.32;;
18711;SDS011;9485;49.386;8.674;2023-06-22T17:27:02;7.35;;;4.30;;
18711;SDS011;9485;49.386;8.674;2023-06-22T17:32:25;7.20;;;3.97;;
18711;SDS011;9485;49.386;8.674;2023-06-22T17:37:55;5.15;;;3.65;;
18711;SDS011;9485;49.386;8.674;2023-06-22T17:43:19;6.32;;;3.80;;
18711;SDS011;9485;49.386;8.674;2023-06-22T17:48:46;4.97;;;3.55;;
18711;SDS011;9485;49.386;8.674;2023-06-22T17:54:10;5.18;;;3.50;;
18711;SDS011;9485;49.386;8.674;2023-06-22T17:59:35;4.80;;;3.58;;
18711;SDS011;9485;49.386;8.674;2023-06-22T18:05:02;3.72;;;3.25;;
18711;SDS011;9485;49.386;8.674;2023-06-22T18:10:27;6.22;;;4.07;;
18711;SDS011;9485;49.386;8.674;2023-06-22T18:15:55;6.55;;;3.45;;
18711;SDS011;9485;49.386;8.674;2023-06-22T18:21:21;3.20;;;2.83;;
18711;SDS011;9485;49.386;8.674;2023-06-22T18:26:46;4.50;;;3.42;;
18711;SDS011;9485;49.386;8.674;2023-06-22T18:32:11;5.65;;;2.97;;
18711;SDS011;9485;49.386;8.674;2023-06-22T18:37:33;4.13;;;3.13;;
18711;SDS011;9485;49.386;8.674;2023-06-22T18:43:01;3.60;;;2.92;;
18711;SDS011;9485;49.386;8.674;2023-06-22T18:48:24;4.38;;;2.70;;
18711;SDS011;9485;49.386;8.674;2023-06-22T18:53:46;3.38;;;2.55;;
18711;SDS011;9485;49.386;8.674;2023-06-22T19:05:14;2.70;;;1.98;;
18711;SDS011;9485;49.386;8.674;2023-06-22T19:10:40;3.15;;;2.20;;
18711;SDS011;9485;49.386;8.674;2023-06-22T19:16:05;1.90;;;1.70;;
18711;SDS011;9485;49.386;8.674;2023-06-22T19:21:29;3.22;;;2.00;;
18711;SDS011;9485;49.386;8.674;2023-06-22T19:26:50;5.07;;;2.35;;
18711;SDS011;9485;49.386;8.674;2023-06-22T19:32:12;2.72;;;2.00;;
18711;SDS011;9485;49.386;8.674;2023-06-22T19:37:34;2.38;;;2.00;;
18711;SDS011;9485;49.386;8.674;2023-06-22T19:42:55;3.17;;;1.80;;
18711;SDS011;9485;49.386;8.674;2023-06-22T19:48:18;3.55;;;1.90;;
18711;SDS011;9485;49.386;8.674;2023-06-22T19:53:39;2.40;;;1.35;;
18711;SDS011;9485;49.386;8.674;2023-06-22T19:59:08;1.83;;;1.30;;
18711;SDS011;9485;49.386;8.674;2023-06-22T20:04:31;2.13;;;0.98;;
18711;SDS011;9485;49.386;8.674;2023-06-22T20:10:04;1.08;;;0.82;;
18711;SDS011;9485;49.386;8.674;2023-06-22T20:15:28;1.33;;;1.00;;
18711;SDS011;9485;49.386;8.674;2023-06-22T20:20:51;0.80;;;0.75;;
18711;SDS011;9485;49.386;8.674;2023-06-22T20:26:11;0.68;;;0.60;;
18711;SDS011;9485;49.386;8.674;2023-06-22T20:31:36;1.65;;;0.70;;
18711;SDS011;9485;49.386;8.674;2023-06-22T20:36:58;0.60;;;0.60;;
18711;SDS011;9485;49.386;8.674;2023-06-22T20:42:18;0.77;;;0.60;;
18711;SDS011;9485;49.386;8.674;2023-06-22T20:47:39;1.02;;;0.77;;
18711;SDS011;9485;49.386;8.674;2023-06-22T20:53:02;0.85;;;0.75;;
18711;SDS011;9485;49.386;8.674;2023-06-22T20:58:25;1.02;;;0.90;;
18711;SDS011;9485;49.386;8.674;2023-06-22T21:03:45;0.93;;;0.63;;
18711;SDS011;9485;49.386;8.674;2023-06-22T21:09:07;0.93;;;0.52;;
18711;SDS011;9485;49.386;8.674;2023-06-22T21:14:28;0.65;;;0.50;;
18711;SDS011;9485;49.386;8.674;2023-06-22T21:19:49;0.60;;;0.60;;
18711;SDS011;9485;49.386;8.674;2023-06-22T21:25:11;0.70;;;0.65;;
18711;SDS011;9485;49.386;8.674;2023-06-22T21:30:34;1.25;;;0.65;;
18711;SDS011;9485;49.386;8.674;2023-06-22T21:35:55;0.60;;;0.60;;
18711;SDS011;9485;49.386;8.674;2023-06-22T21:41:17;0.80;;;0.80;;
18711;SDS011;9485;49.386;8.674;2023-06-22T21:46:38;0.60;;;0.60;;
18711;SDS011;9485;49.386;8.674;2023-06-22T21:51:58;0.73;;;0.73;;
18711;SDS011;9485;49.386;8.674;2023-06-22T21:57:21;0.80;;;0.80;;
18711;SDS011;9485;49.386;8.674;2023-06-22T22:02:45;0.88;;;0.88;;
18711;SDS011;9485;49.386;8.674;2023-06-22T22:08:05;0.80;;;0.75;;
18711;SDS011;9485;49.386;8.674;2023-06-22T22:13:28;1.13;;;1.02;;
18711;SDS011;9485;49.386;8.674;2023-06-22T22:18:50;0.82;;;0.80;;
18711;SDS011;9485;49.386;8.674;2023-06-22T22:24:11;0.70;;;0.70;;
18711;SDS011;9485;49.386;8.674;2023-06-22T22:29:33;0.50;;;0.50;;
18711;SDS011;9485;49.386;8.674;2023-06-22T22:34:55;0.90;;;0.73;;
18711;SDS011;9485;49.386;8.674;2023-06-22T22:40:15;0.82;;;0.60;;
18711;SDS011;9485;49.386;8.674;2023-06-22T22:45:39;0.68;;;0.68;;
18711;SDS011;9485;49.386;8.674;2023-06-22T22:50:59;0.80;;;0.80;;
18711;SDS011;9485;49.386;8.674;2023-06-22T22:56:22;0.60;;;0.60;;
18711;SDS011;9485;49.386;8.674;2023-06-22T23:01:44;0.80;;;0.80;;
18711;SDS011;9485;49.386;8.674;2023-06-22T23:07:05;0.77;;;0.77;;
18711;SDS011;9485;49.386;8.674;2023-06-22T23:12:26;1.92;;;1.25;;
18711;SDS011;9485;49.386;8.674;2023-06-22T23:17:47;0.73;;;0.73;;
18711;SDS011;9485;49.386;8.674;2023-06-22T23:23:09;0.88;;;0.88;;
18711;SDS011;9485;49.386;8.674;2023-06-22T23:28:30;0.80;;;0.80;;
18711;SDS011;9485;49.386;8.674;2023-06-22T23:33:54;0.70;;;0.70;;
18711;SDS011;9485;49.386;8.674;2023-06-22T23:39:15;0.60;;;0.60;;
18711;SDS011;9485;49.386;8.674;2023-06-22T23:44:36;0.63;;;0.63;;
18711;SDS011;9485;49.386;8.674;2023-06-22T23:49:57;1.20;;;1.10;;
18711;SDS011;9485;49.386;8.674;2023-06-22T23:55:18;1.88;;;1.50;;
